CFN4 weather

CLOSED Embarras Airport
Embarras, Alberta, Canada

Public forecast

Using degrees Celsius for public forecast. Weather courtesy of forecast.io.

METAR (pilot weather report)

Closest report is Fort Chipewyan Airport, 34.8 nm (64.4 km) NNE. Retrieved 2019/08/25 10:10 UTC (21 minutes ago):

CYPY 251010Z AUTO 22002KT 8SM BKN150 10/10 A2964 RMK SLP043

TAF (pilot weather forecast)

Forecast is more than 12 hours old.

Closest forecast is Fort Chipewyan Airport, 34.8 nm (64.4 km) NNE. Retrieved 2019/08/24 00:00 UTC (1 day ago):

TAF CYPY 242338Z 2500/2506 VRB03KT P6SM SCT050 TEMPO 2500/2503 P6SM -SHRA VCTS BKN030CB RMK FCST BASED ON AUTO OBS. NXT FCST WILL BE ISSUED AT 251145Z